Time;durP1;ratioP1;P1;durP2;ratioP2;P2;SDS_P1;SDS_P2;PMS_P1;PMS_P2;Temp;Humidity;BMP_temperature;BMP_pressure;BME280_temperature;BME280_humidity;BME280_pressure;Samples;Min_cycle;Max_cycle;Signal;HPM_P1;HPM_P2
2021/06/04 00:00:23;;;;;;;7.23;3.90;;;;;;;17.13;50.91;101657.72;4980749;28;20181;-71
2021/06/04 00:02:49;;;;;;;6.03;3.30;;;;;;;17.04;50.90;101661.00;4996908;28;20250;-71
2021/06/04 00:05:18;;;;;;;5.37;3.30;;;;;;;17.07;51.23;101676.13;5014454;28;20215;-70
2021/06/04 00:07:44;;;;;;;7.87;3.20;;;;;;;16.86;51.96;101676.59;4996907;28;20177;-71
2021/06/04 00:10:15;;;;;;;4.67;3.43;;;;;;;16.79;52.12;101680.66;5014604;28;20180;-71
2021/06/04 00:12:40;;;;;;;5.23;3.43;;;;;;;16.90;50.53;101692.56;4980541;28;20662;-71
2021/06/04 00:15:10;;;;;;;3.93;2.90;;;;;;;16.90;51.24;101673.69;5014182;28;20185;-70
2021/06/04 00:17:35;;;;;;;7.40;3.00;;;;;;;17.06;49.94;101687.88;4996722;28;20204;-70
2021/06/04 00:20:00;;;;;;;5.93;3.50;;;;;;;17.07;49.61;101668.03;4996634;28;20262;-72
2021/06/04 00:22:27;;;;;;;5.87;3.30;;;;;;;17.16;50.28;101652.13;4996741;28;20270;-71
2021/06/04 00:24:54;;;;;;;6.17;3.23;;;;;;;17.23;50.33;101649.00;4996811;28;20165;-71
2021/06/04 00:27:20;;;;;;;8.03;3.77;;;;;;;17.34;49.59;101650.00;4997401;28;20538;-70
2021/06/04 00:29:45;;;;;;;4.27;3.13;;;;;;;17.33;49.29;101647.41;5014070;28;20180;-71
2021/06/04 00:32:12;;;;;;;4.03;2.67;;;;;;;17.38;49.12;101645.25;5014017;28;20661;-71
2021/06/04 00:34:38;;;;;;;3.87;3.40;;;;;;;17.43;48.75;101643.09;4996351;28;20172;-70
2021/06/04 00:37:03;;;;;;;4.53;3.00;;;;;;;17.41;48.83;101647.72;4996410;28;20541;-70
2021/06/04 00:39:33;;;;;;;5.57;3.30;;;;;;;17.39;49.04;101652.38;4996595;28;20224;-71
2021/06/04 00:42:13;;;;;;;4.13;3.30;;;;;;;17.36;49.04;101661.53;5013890;28;20276;-71
2021/06/04 00:44:38;;;;;;;3.73;3.10;;;;;;;17.38;48.86;101666.84;4996029;28;20159;-70
2021/06/04 00:47:05;;;;;;;3.60;2.93;;;;;;;17.33;48.94;101663.59;4997020;28;20256;-70
2021/06/04 00:49:31;;;;;;;6.23;3.77;;;;;;;17.28;48.98;101665.75;4996434;28;20264;-71
2021/06/04 00:52:14;;;;;;;4.60;3.17;;;;;;;16.97;50.55;101672.31;5013978;28;20660;-72
2021/06/04 00:54:41;;;;;;;4.87;3.17;;;;;;;17.24;49.06;101661.53;4996139;28;20157;-71
2021/06/04 00:57:07;;;;;;;5.67;3.10;;;;;;;17.25;48.84;101668.66;4996469;28;20204;-71
2021/06/04 00:59:37;;;;;;;5.23;3.10;;;;;;;17.10;49.73;101668.72;4980527;28;20188;-71
2021/06/04 01:02:05;;;;;;;5.77;3.50;;;;;;;16.99;49.91;101676.66;5013818;28;20229;-71
2021/06/04 01:04:31;;;;;;;8.00;3.10;;;;;;;16.89;50.74;101675.53;4995905;28;20199;-71
2021/06/04 01:07:10;;;;;;;5.07;3.20;;;;;;;16.84;50.98;101670.44;4980282;28;20657;-72
2021/06/04 01:09:42;;;;;;;3.73;2.77;;;;;;;16.81;50.27;101672.47;5013486;28;20191;-70
2021/06/04 01:12:19;;;;;;;4.87;2.90;;;;;;;17.05;49.98;101676.22;5013522;28;20157;-70
2021/06/04 01:14:55;;;;;;;5.83;3.03;;;;;;;17.11;49.56;101670.44;4995766;28;20165;-71
2021/06/04 01:17:37;;;;;;;6.67;2.80;;;;;;;17.25;48.66;101660.56;4995790;28;20175;-71
2021/06/04 01:20:13;;;;;;;5.17;2.93;;;;;;;17.37;48.13;101662.41;4979547;28;20633;-70
2021/06/04 01:22:58;;;;;;;4.30;3.00;;;;;;;17.44;48.14;101655.63;4995836;28;20235;-70
2021/06/04 01:26:03;;;;;;;6.57;2.83;;;;;;;17.43;48.00;101654.75;4995892;28;20165;-71
2021/06/04 01:28:35;;;;;;;5.83;2.80;;;;;;;17.35;48.31;101650.84;4966844;28;20185;-71
2021/06/04 01:31:12;;;;;;;6.87;3.13;;;;;;;17.37;48.24;101654.31;4995703;28;20705;-71
2021/06/04 01:33:59;;;;;;;7.27;3.10;;;;;;;17.36;48.25;101641.78;4995554;28;20692;-71
2021/06/04 01:36:28;;;;;;;3.13;2.80;;;;;;;17.41;48.19;101643.19;4995757;28;20157;-71
2021/06/04 01:38:55;;;;;;;6.43;2.90;;;;;;;17.40;47.79;101643.31;4995712;28;20172;-71
2021/06/04 01:41:23;;;;;;;5.43;3.30;;;;;;;17.36;48.22;101649.88;4979034;28;20226;-71
2021/06/04 01:44:13;;;;;;;4.93;2.80;;;;;;;17.36;47.88;101647.19;5000928;23;20236;-68
2021/06/04 01:46:43;;;;;;;6.47;3.33;;;;;;;17.36;48.26;101644.50;4995862;28;20502;-67
2021/06/04 01:49:17;;;;;;;4.30;3.20;;;;;;;17.32;48.29;101642.97;5013119;28;20223;-68
2021/06/04 01:51:54;;;;;;;4.30;3.20;;;;;;;17.27;48.41;101647.81;4979008;28;20183;-68
2021/06/04 01:54:25;;;;;;;5.17;3.10;;;;;;;17.14;48.90;101643.28;5012952;28;20200;-68
2021/06/04 01:56:57;;;;;;;5.60;2.90;;;;;;;17.04;49.06;101641.28;4999057;28;20284;-68
2021/06/04 01:59:35;;;;;;;5.10;3.53;;;;;;;17.02;49.49;101644.06;4999411;28;20161;-68
2021/06/04 02:02:01;;;;;;;7.17;3.50;;;;;;;16.64;50.45;101640.31;4999351;28;20188;-67
2021/06/04 02:04:30;;;;;;;4.63;3.53;;;;;;;16.76;50.28;101644.97;5017571;28;20208;-68
2021/06/04 02:06:56;;;;;;;5.93;3.33;;;;;;;16.77;50.21;101639.47;4999514;28;20255;-67
2021/06/04 02:09:23;;;;;;;7.90;3.73;;;;;;;16.65;51.21;101651.00;4999544;28;20185;-68
2021/06/04 02:11:50;;;;;;;7.37;3.33;;;;;;;16.43;51.83;101646.16;5016727;28;20197;-68
2021/06/04 02:14:22;;;;;;;7.13;3.10;;;;;;;16.45;51.79;101638.84;4999065;28;20211;-67
2021/06/04 02:17:28;;;;;;;4.77;3.07;;;;;;;16.53;51.41;101641.03;4999700;28;20657;-68
2021/06/04 02:20:23;;;;;;;5.87;3.40;;;;;;;16.58;51.38;101628.97;5016605;28;20251;-68
2021/06/04 02:23:15;;;;;;;8.30;3.33;;;;;;;16.46;52.05;101637.88;5017098;28;20217;-68
2021/06/04 02:26:03;;;;;;;9.13;3.50;;;;;;;16.35;52.39;101635.00;4999099;28;20231;-68
2021/06/04 02:28:40;;;;;;;5.77;3.77;;;;;;;16.18;52.98;101646.00;4998996;28;20211;-67
2021/06/04 02:31:27;;;;;;;3.70;3.20;;;;;;;16.16;53.17;101653.31;4998761;28;20165;-68
2021/06/04 02:34:00;;;;;;;4.03;3.03;;;;;;;16.14;53.00;101652.53;5016276;28;20195;-68
2021/06/04 02:36:31;;;;;;;5.93;3.30;;;;;;;16.14;53.21;101663.31;4982902;28;20161;-68
2021/06/04 02:39:05;;;;;;;8.63;3.40;;;;;;;16.13;53.59;101658.88;4998526;28;20161;-68
2021/06/04 02:41:35;;;;;;;5.00;3.27;;;;;;;16.11;53.64;101656.28;5016127;28;20695;-68
2021/06/04 02:44:08;;;;;;;7.30;3.10;;;;;;;16.02;53.93;101650.63;4998292;28;20686;-68
2021/06/04 02:46:38;;;;;;;6.53;3.30;;;;;;;15.92;54.74;101650.31;5016830;28;20165;-68
2021/06/04 02:49:03;;;;;;;4.70;3.00;;;;;;;15.93;54.47;101652.91;5000957;28;20212;-68
2021/06/04 02:52:00;;;;;;;5.37;3.10;;;;;;;15.91;54.85;101646.75;4998530;28;20177;-68
2021/06/04 02:54:31;;;;;;;5.50;3.63;;;;;;;16.01;54.28;101647.06;4992652;28;20217;-68
2021/06/04 02:57:07;;;;;;;5.30;3.17;;;;;;;15.95;54.54;101659.06;4998341;28;20158;-68
2021/06/04 02:59:36;;;;;;;7.70;3.77;;;;;;;15.94;54.36;101653.78;4982007;28;20219;-68
2021/06/04 03:02:05;;;;;;;7.67;3.50;;;;;;;16.09;53.97;101654.66;5015793;28;20201;-68
2021/06/04 03:04:33;;;;;;;5.03;3.10;;;;;;;16.06;53.80;101647.63;5015669;28;20251;-68
2021/06/04 03:07:02;;;;;;;5.50;3.77;;;;;;;16.11;53.74;101641.97;5015592;28;20268;-68
2021/06/04 03:09:32;;;;;;;10.60;4.20;;;;;;;16.03;54.27;101641.59;4998189;28;20188;-68
2021/06/04 03:12:01;;;;;;;6.70;3.73;;;;;;;15.95;54.71;101640.22;4981939;28;20212;-68
2021/06/04 03:14:26;;;;;;;5.60;3.67;;;;;;;15.84;54.95;101642.72;4998236;28;20684;-68
2021/06/04 03:16:55;;;;;;;6.43;3.03;;;;;;;15.90;54.85;101647.72;5015531;28;20272;-68
2021/06/04 03:19:21;;;;;;;4.87;3.77;;;;;;;15.93;54.58;101636.75;4997852;28;20176;-68
2021/06/04 03:22:18;;;;;;;6.50;3.40;;;;;;;15.90;54.64;101641.47;4997879;28;20742;-67
2021/06/04 03:24:44;;;;;;;5.63;3.47;;;;;;;15.89;54.72;101632.53;5000175;28;20602;-68
2021/06/04 03:27:11;;;;;;;9.23;3.97;;;;;;;15.98;54.56;101631.06;5015773;28;20177;-68
2021/06/04 03:29:36;;;;;;;5.37;3.60;;;;;;;16.06;53.94;101630.63;4997964;28;20183;-67
2021/06/04 03:32:08;;;;;;;6.30;3.07;;;;;;;16.03;54.02;101633.50;5015206;28;20173;-68
2021/06/04 03:34:34;;;;;;;8.50;3.57;;;;;;;16.04;54.31;101630.72;5015051;28;20597;-68
2021/06/04 03:37:01;;;;;;;6.27;3.30;;;;;;;16.03;54.02;101625.44;4997636;28;20264;-68
2021/06/04 03:39:33;;;;;;;6.37;3.67;;;;;;;15.98;54.48;101635.59;5015249;28;20173;-67
2021/06/04 03:42:00;;;;;;;6.23;3.70;;;;;;;16.04;54.16;101629.84;4997160;28;20205;-67
2021/06/04 03:44:28;;;;;;;6.20;3.73;;;;;;;16.04;53.72;101633.41;4997101;28;20669;-67
2021/06/04 03:46:54;;;;;;;4.57;3.23;;;;;;;16.02;54.23;101637.16;4997119;28;20243;-68
2021/06/04 03:49:21;;;;;;;4.73;3.53;;;;;;;16.04;54.04;101651.41;5014816;28;20573;-68
2021/06/04 03:51:48;;;;;;;4.17;2.80;;;;;;;16.06;54.74;101662.94;4997228;28;20717;-68
2021/06/04 03:54:18;;;;;;;4.47;2.80;;;;;;;16.07;54.32;101672.75;5014735;28;20185;-68
2021/06/04 03:56:45;;;;;;;3.90;2.93;;;;;;;16.07;54.74;101670.03;4997005;28;20195;-67
2021/06/04 03:59:11;;;;;;;8.27;3.27;;;;;;;16.05;55.08;101671.97;5014719;28;20263;-67
2021/06/04 04:01:54;;;;;;;6.93;3.37;;;;;;;16.09;55.07;101679.75;5014350;28;20246;-67
2021/06/04 04:04:20;;;;;;;3.77;3.20;;;;;;;16.05;56.48;101683.59;5014400;28;20266;-68
2021/06/04 04:06:45;;;;;;;4.77;3.67;;;;;;;15.81;57.83;101688.66;4996997;28;20646;-67
2021/06/04 04:09:13;;;;;;;4.00;3.60;;;;;;;15.54;60.04;101693.00;4980794;28;20592;-67
2021/06/04 04:11:40;;;;;;;7.03;3.83;;;;;;;15.32;61.46;101683.53;5014671;28;20224;-68
2021/06/04 04:14:06;;;;;;;4.93;3.50;;;;;;;15.21;61.94;101690.47;5014333;28;20188;-68
2021/06/04 04:16:33;;;;;;;9.53;4.33;;;;;;;15.14;62.51;101678.34;4996808;28;20177;-68
2021/06/04 04:18:58;;;;;;;4.47;3.80;;;;;;;15.17;62.06;101679.03;4996333;28;20176;-68
2021/06/04 04:21:23;;;;;;;8.33;4.13;;;;;;;15.20;60.98;101670.78;5014630;28;20196;-68
2021/06/04 04:23:52;;;;;;;7.97;4.23;;;;;;;15.12;61.71;101677.56;5014301;28;20287;-67
2021/06/04 04:26:23;;;;;;;7.13;4.17;;;;;;;15.20;62.70;101673.47;4980938;28;20205;-69
2021/06/04 04:28:50;;;;;;;7.70;4.33;;;;;;;15.11;62.42;101671.34;4997438;28;20175;-68
2021/06/04 04:31:18;;;;;;;5.17;4.27;;;;;;;15.16;62.52;101668.38;5014674;28;20631;-68
2021/06/04 04:33:44;;;;;;;5.80;4.27;;;;;;;15.15;61.65;101666.63;4996457;28;20192;-67
2021/06/04 04:36:11;;;;;;;6.83;4.63;;;;;;;14.98;63.43;101664.94;5014646;28;20173;-68
2021/06/04 04:38:36;;;;;;;7.87;4.13;;;;;;;14.85;63.39;101655.84;4980414;28;20631;-68
2021/06/04 04:41:03;;;;;;;5.63;3.97;;;;;;;14.73;63.74;101646.69;4996857;28;20177;-68
2021/06/04 04:43:32;;;;;;;6.87;4.67;;;;;;;14.72;64.08;101638.72;4980353;28;20216;-68
2021/06/04 04:45:59;;;;;;;9.47;4.33;;;;;;;14.72;63.66;101644.94;5014284;28;20259;-68
2021/06/04 04:48:24;;;;;;;13.93;4.77;;;;;;;14.74;63.56;101647.53;5014461;28;20212;-68
2021/06/04 04:50:50;;;;;;;6.63;4.43;;;;;;;14.80;63.63;101652.56;4996819;28;20207;-67
2021/06/04 04:53:15;;;;;;;11.97;4.63;;;;;;;14.85;63.23;101645.09;4998214;28;20188;-67
2021/06/04 04:55:41;;;;;;;6.10;4.30;;;;;;;14.89;63.44;101646.69;4997309;28;20177;-69
2021/06/04 04:58:08;;;;;;;5.37;4.20;;;;;;;14.94;62.63;101649.97;5014858;28;20180;-68
2021/06/04 05:00:34;;;;;;;7.07;5.23;;;;;;;14.96;63.17;101642.66;5013968;28;20169;-68
2021/06/04 05:03:00;;;;;;;4.77;4.00;;;;;;;15.01;63.52;101637.88;5013946;28;20212;-68
2021/06/04 05:05:27;;;;;;;7.33;4.33;;;;;;;15.09;62.82;101640.13;5013943;28;20176;-72
2021/06/04 05:07:52;;;;;;;4.80;4.20;;;;;;;15.11;62.14;101647.13;4996399;28;20310;-69
2021/06/04 05:10:17;;;;;;;7.10;4.80;;;;;;;15.14;61.74;101646.94;5014145;28;20216;-68
2021/06/04 05:12:43;;;;;;;6.90;4.50;;;;;;;15.15;62.10;101646.00;4996622;28;20204;-71
2021/06/04 05:15:13;;;;;;;7.83;5.00;;;;;;;15.21;61.58;101645.63;4996308;28;20187;-73
2021/06/04 05:17:38;;;;;;;11.30;5.17;;;;;;;15.26;61.83;101648.94;4980203;28;20259;-73
2021/06/04 05:20:04;;;;;;;5.97;4.70;;;;;;;15.29;61.42;101647.88;5013964;28;20193;-74
2021/06/04 05:22:30;;;;;;;11.57;4.30;;;;;;;15.20;62.33;101646.59;4996486;28;20212;-74
2021/06/04 05:24:55;;;;;;;5.53;4.17;;;;;;;15.20;64.38;101646.59;4996123;28;20203;-74
2021/06/04 05:27:21;;;;;;;6.17;4.17;;;;;;;15.12;64.16;101642.63;4995864;28;20262;-74
2021/06/04 05:29:46;;;;;;;5.20;4.50;;;;;;;15.04;63.35;101645.78;4995659;28;20541;-74
2021/06/04 05:32:12;;;;;;;4.40;4.00;;;;;;;15.09;64.48;101649.06;5013187;28;20215;-74
2021/06/04 05:34:37;;;;;;;4.80;4.30;;;;;;;15.17;61.96;101648.59;4995669;28;20196;-74
2021/06/04 05:37:04;;;;;;;5.40;4.07;;;;;;;15.28;62.09;101638.94;4995603;28;20176;-73
2021/06/04 05:39:29;;;;;;;5.53;4.17;;;;;;;15.42;62.04;101639.94;4995788;28;20180;-74
2021/06/04 05:42:01;;;;;;;6.73;4.90;;;;;;;15.45;62.55;101645.13;4995772;28;20201;-74
2021/06/04 05:44:29;;;;;;;6.63;4.20;;;;;;;15.38;64.11;101644.63;4995851;28;20207;-74
2021/06/04 05:46:59;;;;;;;9.90;4.57;;;;;;;15.27;63.88;101637.22;4979433;28;20239;-73
2021/06/04 05:49:25;;;;;;;8.10;4.57;;;;;;;15.53;62.93;101637.44;4979439;28;20169;-68
2021/06/04 05:51:52;;;;;;;8.03;4.90;;;;;;;15.45;64.46;101639.75;4979525;28;20168;-68
2021/06/04 05:54:17;;;;;;;6.00;4.50;;;;;;;15.36;63.90;101635.78;4979296;28;20201;-67
2021/06/04 05:56:43;;;;;;;10.50;5.23;;;;;;;15.44;63.33;101641.56;4995294;28;20261;-67
2021/06/04 05:59:10;;;;;;;7.60;4.43;;;;;;;15.50;63.18;101643.03;4995741;28;20275;-68
2021/06/04 06:01:36;;;;;;;5.93;4.20;;;;;;;15.69;62.58;101657.13;4995538;28;20196;-69
2021/06/04 06:04:02;;;;;;;4.60;4.20;;;;;;;15.82;61.52;101658.09;5013067;28;20569;-67
2021/06/04 06:06:27;;;;;;;7.07;4.20;;;;;;;15.72;61.43;101654.25;4979270;28;20188;-67
2021/06/04 06:08:53;;;;;;;8.63;4.93;;;;;;;15.59;61.56;101661.31;5012828;28;20541;-67
2021/06/04 06:11:23;;;;;;;5.07;4.40;;;;;;;15.62;62.17;101664.72;5013818;28;20173;-68
2021/06/04 06:13:49;;;;;;;12.37;5.07;;;;;;;15.58;62.74;101657.75;4996004;28;20200;-68
2021/06/04 06:16:15;;;;;;;6.60;4.90;;;;;;;15.68;62.64;101658.09;4995212;28;20585;-68
2021/06/04 06:18:40;;;;;;;8.40;4.80;;;;;;;15.84;62.13;101669.63;4995205;28;20177;-67
2021/06/04 06:21:05;;;;;;;8.43;4.80;;;;;;;16.00;61.70;101674.09;5012713;28;20226;-67
2021/06/04 06:23:33;;;;;;;9.00;4.80;;;;;;;16.22;61.68;101675.31;5012943;28;20200;-68
2021/06/04 06:26:04;;;;;;;6.57;4.63;;;;;;;16.26;62.08;101676.84;4996175;28;20260;-68
2021/06/04 06:28:33;;;;;;;6.60;3.93;;;;;;;16.42;60.45;101682.16;4995468;28;20244;-68
2021/06/04 06:31:00;;;;;;;4.73;4.20;;;;;;;16.55;60.15;101680.38;4995921;28;20687;-69
2021/06/04 06:33:25;;;;;;;9.60;5.17;;;;;;;16.73;60.00;101678.38;4995782;28;20668;-69
2021/06/04 06:35:55;;;;;;;11.70;4.30;;;;;;;16.69;60.15;101676.81;5013467;28;20200;-68
2021/06/04 06:38:22;;;;;;;7.40;4.10;;;;;;;16.85;59.72;101679.41;5013216;28;20541;-68
2021/06/04 06:40:49;;;;;;;5.67;4.43;;;;;;;16.75;59.75;101681.84;4995483;28;20173;-69
2021/06/04 06:43:15;;;;;;;7.77;4.77;;;;;;;16.51;60.52;101686.94;4998611;28;20201;-69
2021/06/04 06:45:41;;;;;;;8.63;4.50;;;;;;;16.76;59.80;101688.09;5016667;28;20215;-69
2021/06/04 06:48:06;;;;;;;4.23;3.80;;;;;;;16.72;58.87;101689.22;4998796;28;20259;-68
2021/06/04 06:50:33;;;;;;;6.83;4.10;;;;;;;16.87;59.12;101696.34;5016622;28;20181;-67
2021/06/04 06:53:00;;;;;;;7.13;4.37;;;;;;;17.05;57.78;101684.31;4998417;28;20188;-69
2021/06/04 06:55:25;;;;;;;10.50;4.30;;;;;;;17.06;57.36;101683.34;4982469;28;20600;-69
2021/06/04 06:57:51;;;;;;;6.30;4.40;;;;;;;16.84;58.68;101675.84;4982654;28;20181;-69
2021/06/04 07:00:22;;;;;;;7.57;4.47;;;;;;;16.74;59.93;101684.63;5017218;28;20177;-69
2021/06/04 07:02:47;;;;;;;7.23;4.73;;;;;;;17.26;58.61;101687.44;5016266;28;20716;-70
2021/06/04 07:05:14;;;;;;;6.13;4.50;;;;;;;17.44;57.81;101688.00;5017937;28;20181;-69
2021/06/04 07:07:39;;;;;;;7.23;4.30;;;;;;;17.57;57.81;101696.16;4999229;28;20644;-69
2021/06/04 07:10:08;;;;;;;7.07;4.97;;;;;;;17.54;58.39;101681.03;5016210;28;20177;-69
2021/06/04 07:12:33;;;;;;;7.80;5.00;;;;;;;17.57;57.80;101682.66;4998543;28;20530;-69
2021/06/04 07:14:58;;;;;;;9.70;5.20;;;;;;;17.52;57.82;101682.09;5016384;28;20176;-69
2021/06/04 07:17:24;;;;;;;8.37;4.80;;;;;;;16.93;60.47;101693.22;4998736;28;20177;-70
2021/06/04 07:19:49;;;;;;;6.77;4.50;;;;;;;16.95;60.59;101688.59;5016128;28;20180;-69
2021/06/04 07:22:15;;;;;;;6.83;5.00;;;;;;;16.84;61.26;101689.31;4998208;28;20287;-69
2021/06/04 07:24:40;;;;;;;14.20;5.60;;;;;;;16.69;61.76;101689.44;5015870;28;20201;-69
2021/06/04 07:27:06;;;;;;;8.13;5.43;;;;;;;16.46;63.45;101678.28;5016070;28;20169;-68
2021/06/04 07:29:31;;;;;;;11.23;5.53;;;;;;;16.19;64.23;101682.72;5015751;28;20184;-68
2021/06/04 07:31:57;;;;;;;8.83;5.93;;;;;;;16.23;63.81;101676.19;4998311;28;20193;-68
2021/06/04 07:34:25;;;;;;;7.20;5.43;;;;;;;16.17;64.39;101676.56;4997635;28;20193;-69
2021/06/04 07:36:54;;;;;;;10.70;5.70;;;;;;;16.65;62.38;101674.41;4997900;28;20173;-69
2021/06/04 07:39:24;;;;;;;7.03;5.03;;;;;;;16.51;62.43;101673.47;5015182;28;20199;-68
2021/06/04 07:41:50;;;;;;;6.33;4.57;;;;;;;16.97;60.18;101677.72;5016054;28;20672;-69
2021/06/04 07:44:15;;;;;;;7.37;4.90;;;;;;;16.75;60.86;101673.75;5028574;22;20243;-72
2021/06/04 07:46:42;;;;;;;7.07;4.90;;;;;;;16.89;60.10;101672.84;5015296;28;20177;-72
2021/06/04 07:49:07;;;;;;;6.20;4.87;;;;;;;16.92;59.99;101674.47;5016950;28;20199;-70
2021/06/04 07:51:39;;;;;;;9.50;5.10;;;;;;;16.73;59.04;101664.91;5014770;28;20637;-72
2021/06/04 07:54:06;;;;;;;11.03;4.77;;;;;;;16.78;59.92;101661.91;4997290;28;20577;-71
2021/06/04 07:56:32;;;;;;;5.73;4.97;;;;;;;16.83;59.06;101659.75;4997447;28;20664;-71
2021/06/04 07:58:57;;;;;;;6.30;5.13;;;;;;;16.93;59.56;101671.66;5014715;28;20177;-71
2021/06/04 08:01:23;;;;;;;5.97;4.90;;;;;;;17.04;59.42;101681.72;4980783;28;20181;-71
2021/06/04 08:03:48;;;;;;;7.30;5.00;;;;;;;17.49;58.28;101675.94;4997368;28;20215;-71
2021/06/04 08:06:16;;;;;;;7.90;4.87;;;;;;;17.86;57.37;101677.97;5014433;28;20177;-70
2021/06/04 08:08:41;;;;;;;7.60;5.43;;;;;;;17.30;59.90;101680.84;4997179;28;20211;-69
2021/06/04 08:11:10;;;;;;;7.23;4.67;;;;;;;17.24;60.01;101681.28;4980774;28;20229;-70
2021/06/04 08:13:36;;;;;;;6.17;4.53;;;;;;;18.04;57.83;101682.91;5014549;28;20216;-71
2021/06/04 08:16:06;;;;;;;6.47;4.60;;;;;;;18.40;56.40;101676.72;4997244;28;20625;-71
2021/06/04 08:18:34;;;;;;;6.63;4.53;;;;;;;18.12;57.75;101677.81;4997695;28;20177;-70
2021/06/04 08:21:05;;;;;;;7.07;4.67;;;;;;;18.42;57.52;101671.19;5014432;28;20177;-71
2021/06/04 08:23:32;;;;;;;10.63;5.70;;;;;;;18.23;58.32;101674.38;4996114;28;20220;-72
2021/06/04 08:25:58;;;;;;;14.30;4.93;;;;;;;19.35;54.91;101670.56;4997410;28;20633;-71
2021/06/04 08:28:25;;;;;;;10.97;5.07;;;;;;;19.58;53.96;101681.47;4997721;28;20185;-72
2021/06/04 08:30:51;;;;;;;8.93;4.93;;;;;;;18.57;56.96;101678.19;5015269;28;20177;-71
2021/06/04 08:33:23;;;;;;;17.73;5.67;;;;;;;18.36;57.91;101679.75;4997192;28;20280;-71
2021/06/04 08:35:48;;;;;;;10.23;4.80;;;;;;;18.56;57.50;101678.28;4980814;28;20234;-70
2021/06/04 08:38:14;;;;;;;9.83;4.63;;;;;;;18.79;56.96;101672.09;5013708;28;20177;-70
2021/06/04 08:40:39;;;;;;;8.77;5.23;;;;;;;18.66;56.93;101680.28;5014572;28;20184;-70
2021/06/04 08:43:16;;;;;;;9.63;4.60;;;;;;;19.14;55.68;101684.84;4996200;28;20212;-69
2021/06/04 08:46:05;;;;;;;5.63;4.70;;;;;;;19.75;53.91;101689.16;4997086;28;20164;-71
2021/06/04 08:48:32;;;;;;;9.83;4.93;;;;;;;19.96;52.79;101690.16;4996721;28;20161;-71
2021/06/04 08:51:23;;;;;;;9.23;4.97;;;;;;;19.60;55.34;101687.63;5013429;28;20177;-71
2021/06/04 08:54:29;;;;;;;7.17;4.23;;;;;;;19.66;53.49;101684.44;4995900;28;20208;-71
2021/06/04 08:57:24;;;;;;;5.83;4.53;;;;;;;19.82;54.70;101678.72;4997271;28;20171;-71
2021/06/04 08:59:50;;;;;;;9.10;4.67;;;;;;;19.88;54.55;101684.50;4995941;28;20176;-70
2021/06/04 09:02:21;;;;;;;7.17;4.87;;;;;;;20.63;51.48;101677.63;5018585;28;20204;-70
2021/06/04 09:04:50;;;;;;;8.73;4.73;;;;;;;20.63;51.75;101683.94;5007820;28;20284;-70
2021/06/04 09:07:27;;;;;;;9.00;5.03;;;;;;;21.01;50.88;101685.31;5004046;28;20660;-69
2021/06/04 09:10:14;;;;;;;6.70;4.20;;;;;;;20.84;51.21;101692.16;4995878;28;20161;-70
2021/06/04 09:13:01;;;;;;;5.80;3.93;;;;;;;21.13;50.20;101687.00;4996033;28;20164;-71
2021/06/04 09:15:30;;;;;;;9.27;4.37;;;;;;;21.99;48.87;101678.69;4996168;28;20247;-71
2021/06/04 09:17:58;;;;;;;4.40;3.80;;;;;;;22.47;47.27;101680.81;4995770;28;20173;-70
2021/06/04 09:20:43;;;;;;;6.10;4.60;;;;;;;22.87;46.88;101675.34;4995503;28;20203;-71
2021/06/04 09:23:12;;;;;;;10.33;4.23;;;;;;;23.25;45.23;101673.69;5013682;28;20288;-71
2021/06/04 09:25:39;;;;;;;10.53;3.97;;;;;;;22.94;44.90;101668.34;4995267;28;20208;-71
2021/06/04 09:28:13;;;;;;;8.23;3.87;;;;;;;23.05;45.22;101672.81;4995332;28;20181;-71
2021/06/04 09:30:41;;;;;;;6.50;4.23;;;;;;;23.68;43.18;101675.97;5013405;28;20173;-70
2021/06/04 09:33:10;;;;;;;9.90;3.90;;;;;;;24.18;42.59;101670.28;5013307;28;20197;-71
2021/06/04 09:35:58;;;;;;;9.53;5.07;;;;;;;23.34;43.84;101654.59;4995808;28;20173;-71
2021/06/04 09:38:31;;;;;;;6.77;4.90;;;;;;;24.14;44.17;101666.09;5002360;28;20200;-70
2021/06/04 09:40:57;;;;;;;7.80;4.43;;;;;;;23.59;44.80;101668.69;4995692;28;20180;-69
2021/06/04 09:43:31;;;;;;;13.20;4.50;;;;;;;23.06;45.97;101671.81;4995599;28;20642;-71
2021/06/04 09:46:02;;;;;;;8.83;4.67;;;;;;;22.56;48.26;101671.81;4995478;28;20176;-71
2021/06/04 09:48:35;;;;;;;10.07;4.97;;;;;;;22.74;47.92;101674.72;4995513;28;20623;-71
2021/06/04 09:51:08;;;;;;;6.13;3.90;;;;;;;23.94;44.66;101660.72;5013018;28;20180;-72
2021/06/04 09:53:33;;;;;;;11.07;3.90;;;;;;;22.92;45.93;101664.91;5012884;28;20196;-71
2021/06/04 09:56:01;;;;;;;7.97;4.37;;;;;;;22.87;46.54;101666.34;5012917;28;20177;-71
2021/06/04 09:58:28;;;;;;;7.87;4.07;;;;;;;23.42;44.53;101651.19;5012810;28;20173;-71
2021/06/04 10:01:06;;;;;;;6.60;4.27;;;;;;;22.96;45.33;101651.88;4995739;28;20528;-70
2021/06/04 10:03:40;;;;;;;7.53;4.47;;;;;;;23.62;43.35;101652.03;4994975;28;20212;-71
2021/06/04 10:06:09;;;;;;;7.17;4.00;;;;;;;23.33;44.86;101642.00;5012590;28;20190;-70
2021/06/04 10:08:56;;;;;;;7.10;3.70;;;;;;;24.11;43.80;101653.63;5012736;28;20200;-70
2021/06/04 10:11:39;;;;;;;5.93;3.70;;;;;;;24.00;43.72;101641.03;4995421;28;20620;-71
2021/06/04 10:14:25;;;;;;;7.37;4.07;;;;;;;23.25;46.00;101650.03;5012677;28;20195;-70
2021/06/04 10:19:31;;;;;;;8.63;4.30;;;;;;;22.68;47.71;101646.22;4999600;28;20189;-70
2021/06/04 10:22:05;;;;;;;9.20;4.37;;;;;;;22.81;47.82;101650.56;4999144;28;20244;-70
2021/06/04 10:24:41;;;;;;;6.33;4.13;;;;;;;23.10;46.83;101651.47;4999172;28;20200;-70
2021/06/04 10:27:35;;;;;;;4.87;3.50;;;;;;;23.09;46.19;101649.75;4999424;28;20247;-70
2021/06/04 10:30:17;;;;;;;10.00;4.50;;;;;;;23.92;45.93;101654.56;5008299;28;20534;-69
2021/06/04 10:32:59;;;;;;;11.27;3.97;;;;;;;24.83;42.72;101655.56;4983154;28;20177;-71
2021/06/04 10:35:43;;;;;;;10.97;3.80;;;;;;;23.78;45.31;101646.81;4999002;28;20266;-72
2021/06/04 10:38:15;;;;;;;5.40;3.90;;;;;;;23.85;44.67;101639.81;4998931;28;20226;-70
2021/06/04 10:40:52;;;;;;;5.57;3.67;;;;;;;24.67;42.19;101641.75;4983337;28;20188;-71
2021/06/04 10:43:28;;;;;;;10.33;3.73;;;;;;;24.30;44.30;101644.53;4999009;28;20307;-71
2021/06/04 10:46:35;;;;;;;10.67;3.53;;;;;;;24.65;43.49;101643.78;4998899;28;20164;-70
2021/06/04 10:49:09;;;;;;;4.30;3.50;;;;;;;25.75;40.93;101638.03;5008243;28;20240;-71
2021/06/04 10:51:50;;;;;;;4.90;3.50;;;;;;;25.55;40.98;101640.91;4998859;28;20169;-70
2021/06/04 10:54:29;;;;;;;8.57;4.40;;;;;;;24.24;43.27;101635.06;4998697;28;20199;-71
2021/06/04 10:57:09;;;;;;;7.73;3.10;;;;;;;24.75;42.92;101644.56;4998822;28;20172;-70
2021/06/04 10:59:50;;;;;;;10.77;3.80;;;;;;;24.16;43.32;101642.25;4998611;28;20196;-71
2021/06/04 11:02:23;;;;;;;4.10;3.30;;;;;;;24.85;41.66;101639.03;5016096;28;20250;-72
2021/06/04 11:04:58;;;;;;;4.50;3.13;;;;;;;26.50;39.17;101630.94;4982056;28;20247;-69
2021/06/04 11:07:31;;;;;;;5.90;3.13;;;;;;;28.04;36.04;101624.69;5016482;28;20255;-70
2021/06/04 11:10:12;;;;;;;5.67;2.97;;;;;;;29.02;33.52;101629.78;4983330;28;20641;-71
2021/06/04 11:13:03;;;;;;;8.30;3.00;;;;;;;29.55;32.76;101621.44;5015914;28;20176;-72
2021/06/04 11:15:50;;;;;;;5.03;2.97;;;;;;;30.28;31.19;101617.06;4981810;28;20220;-71
2021/06/04 11:18:31;;;;;;;5.47;3.10;;;;;;;31.05;29.42;101614.59;5015919;28;20173;-71
2021/06/04 11:20:57;;;;;;;5.95;3.22;;;;;;;29.66;32.17;101614.63;4998761;28;20164;-71
2021/06/04 11:23:36;;;;;;;7.55;3.20;;;;;;;27.54;34.05;101620.31;4998129;28;20292;-72
2021/06/04 11:26:05;;;;;;;4.20;2.78;;;;;;;28.00;33.43;101615.97;4997863;28;20211;-71
2021/06/04 11:28:46;;;;;;;6.30;3.08;;;;;;;27.38;34.06;101610.19;5015383;28;20179;-71
2021/06/04 11:31:30;;;;;;;4.43;2.80;;;;;;;28.18;33.14;101612.13;5015740;28;20303;-70
2021/06/04 11:33:58;;;;;;;4.88;2.70;;;;;;;29.61;30.21;101616.22;5015194;28;20208;-70
2021/06/04 11:36:30;;;;;;;5.80;2.95;;;;;;;27.93;31.32;101609.47;4998175;28;20185;-72
2021/06/04 11:39:03;;;;;;;4.22;2.63;;;;;;;29.55;29.75;101612.34;5016340;28;20219;-72
2021/06/04 11:41:41;;;;;;;5.10;2.50;;;;;;;30.37;27.80;101617.81;5001210;28;20165;-71
2021/06/04 11:44:41;;;;;;;5.22;2.38;;;;;;;29.32;29.00;101614.22;5002944;28;20204;-71